Terminal Aerodrome Forecast
Issued by NWS

Home | Current Version | Previous Version | Text Only | Print | Product List | Glossary On
Versions: 1 2 3 4 5 6 7 8 9 10 11 12 13 14 15 16 17 18 19 20 21
000
FTUS41 KBTV 022320
TAFSLK
TAF
KSLK 022320Z 0300/0324 28007G14KT P6SM BKN030
     FM030200 VRB03KT P6SM SKC
     FM031500 20005KT P6SM OVC150
     FM032200 19010G20KT 2SM -SN BR SCT020 OVC035=

USA.gov is the U.S. government's official web portal to all federal, state and local government web resources and services.